createdAt,value
2022-11-21T00:09:41.510Z,137.30
2022-11-21T00:14:49.578Z,147.40
2022-11-21T00:19:56.981Z,156.60
2022-11-21T00:25:04.191Z,141.20
2022-11-21T00:40:26.499Z,113.10
2022-11-21T00:45:33.707Z,143.80
2022-11-21T00:55:46.581Z,151.30
2022-11-21T01:00:54.129Z,159.00
2022-11-21T01:06:07.113Z,145.20
2022-11-21T01:11:16.873Z,127.30
2022-11-21T01:16:26.952Z,139.50
2022-11-21T01:21:35.219Z,127.10
2022-11-21T01:26:49.684Z,140.20
2022-11-21T01:32:03.181Z,132.90
2022-11-21T01:37:10.533Z,123.00
2022-11-21T01:42:18.250Z,120.80
2022-11-21T01:47:25.506Z,120.50
2022-11-21T01:57:42.888Z,109.70
2022-11-21T02:02:55.405Z,116.90
2022-11-21T02:08:07.301Z,106.60
2022-11-21T02:13:14.694Z,128.30
2022-11-21T02:18:22.436Z,121.20
2022-11-21T02:23:38.832Z,109.10
2022-11-21T02:28:46.573Z,107.30
2022-11-21T02:34:08.283Z,107.50
2022-11-21T02:39:21.327Z,89.30
2022-11-21T02:44:36.708Z,115.70
2022-11-21T02:49:51.634Z,111.00
2022-11-21T03:00:30.778Z,110.30
2022-11-21T03:05:40.017Z,118.60
2022-11-21T03:10:47.103Z,117.70
2022-11-21T03:15:55.754Z,112.80
2022-11-21T03:21:03.161Z,108.80
2022-11-21T03:26:10.275Z,114.70
2022-11-21T03:36:23.455Z,94.30
2022-11-21T03:41:30.647Z,103.00
2022-11-21T03:46:39.643Z,117.10
2022-11-21T03:51:47.571Z,123.40
2022-11-21T03:57:20.880Z,104.90
2022-11-21T04:02:28.245Z,109.50
2022-11-21T04:07:35.626Z,106.70
2022-11-21T04:12:43.105Z,116.60
2022-11-21T04:17:51.112Z,110.30
2022-11-21T04:22:58.564Z,111.30
2022-11-21T04:28:07.266Z,103.60
2022-11-21T04:33:15.172Z,122.20
2022-11-21T04:38:22.287Z,123.90
2022-11-21T04:48:39.325Z,107.30
2022-11-21T04:53:47.346Z,98.30
2022-11-21T04:58:57.232Z,95.80
2022-11-21T05:04:04.341Z,120.70
2022-11-21T05:14:17.776Z,119.00
2022-11-21T05:19:25.914Z,109.40
2022-11-21T05:24:33.116Z,121.20
2022-11-21T05:29:40.551Z,114.80
2022-11-21T05:34:48.242Z,126.50
2022-11-21T05:39:55.568Z,119.50
2022-11-21T05:45:03.969Z,122.00
2022-11-21T05:50:12.252Z,114.40
2022-11-21T05:55:19.804Z,119.50
2022-11-21T06:00:27.315Z,116.90
2022-11-21T06:05:34.807Z,79.00
2022-11-21T06:15:49.777Z,95.30
2022-11-21T06:21:01.535Z,127.50
2022-11-21T06:26:12.769Z,114.20
2022-11-21T06:31:22.250Z,119.90
2022-11-21T06:36:29.276Z,104.40
2022-11-21T06:41:36.378Z,116.40
2022-11-21T06:46:48.238Z,115.20
2022-11-21T06:51:57.929Z,107.60
2022-11-21T07:00:48.899Z,124.80
2022-11-21T07:05:59.888Z,116.00
2022-11-21T07:11:25.578Z,114.30
2022-11-21T07:16:35.180Z,103.30
2022-11-21T07:21:43.272Z,105.60
2022-11-21T07:26:51.386Z,143.40
2022-11-21T07:31:58.806Z,121.50
2022-11-21T07:42:13.115Z,107.30
2022-11-21T07:47:20.758Z,86.60
2022-11-21T07:52:30.391Z,121.30
2022-11-21T07:57:37.846Z,126.00
2022-11-21T08:02:45.887Z,168.90
2022-11-21T08:07:52.888Z,175.00
2022-11-21T08:12:59.801Z,120.00
2022-11-21T08:18:12.719Z,94.50
2022-11-21T08:23:19.802Z,86.70
2022-11-21T08:28:27.007Z,89.30
2022-11-21T08:38:39.585Z,123.70
2022-11-21T08:43:46.914Z,97.30
2022-11-21T08:48:53.926Z,91.40
2022-11-21T08:54:03.002Z,82.50
2022-11-21T08:59:10.766Z,91.00
2022-11-21T09:04:18.171Z,98.10
2022-11-21T09:09:25.939Z,84.40
2022-11-21T09:14:52.275Z,117.50
2022-11-21T09:19:59.809Z,109.70
2022-11-21T09:28:12.734Z,93.40
2022-11-21T09:33:19.737Z,82.90
2022-11-21T09:38:27.257Z,96.80
2022-11-21T09:43:55.549Z,80.30
2022-11-21T09:49:06.638Z,71.70
2022-11-21T09:54:21.913Z,69.60
2022-11-21T09:59:36.374Z,69.30
2022-11-21T10:04:43.956Z,72.80
2022-11-21T10:10:05.427Z,78.90
2022-11-21T10:15:25.363Z,78.30
2022-11-21T10:20:47.692Z,80.50
2022-11-21T10:25:59.390Z,67.90
2022-11-21T10:31:10.423Z,88.10
2022-11-21T10:36:27.064Z,88.40
2022-11-21T10:41:47.914Z,101.40
2022-11-21T10:47:00.332Z,90.70
2022-11-21T10:52:13.152Z,103.90
2022-11-21T10:57:21.914Z,86.00
2022-11-21T11:02:29.434Z,88.10
2022-11-21T11:07:36.545Z,80.20
2022-11-21T11:13:08.744Z,69.70
2022-11-21T11:18:26.909Z,72.00
2022-11-21T11:23:34.052Z,69.60
2022-11-21T11:28:41.662Z,93.10
2022-11-21T11:33:58.585Z,83.70
2022-11-21T11:39:18.673Z,82.20
2022-11-21T11:44:51.390Z,73.10
2022-11-21T11:50:13.588Z,78.60
2022-11-21T11:55:27.712Z,89.00
2022-11-21T12:00:41.881Z,91.00
2022-11-21T12:06:02.449Z,82.80
2022-11-21T12:11:38.764Z,83.00
2022-11-21T12:16:47.193Z,97.60
2022-11-21T12:21:54.740Z,86.20
2022-11-21T12:27:15.439Z,87.00
2022-11-21T12:32:36.461Z,90.90
2022-11-21T12:37:56.047Z,89.10
2022-11-21T12:43:18.088Z,82.50
2022-11-21T12:49:04.824Z,89.50
2022-11-21T12:54:31.895Z,90.30
2022-11-21T12:59:49.590Z,99.80
2022-11-21T13:04:59.041Z,87.40
2022-11-21T13:10:14.280Z,85.90
2022-11-21T13:15:31.758Z,83.40
2022-11-21T13:20:52.257Z,86.40
2022-11-21T13:26:02.071Z,81.50
2022-11-21T13:31:31.234Z,73.70
2022-11-21T13:36:40.451Z,84.00
2022-11-21T13:42:22.143Z,79.50
2022-11-21T13:48:11.251Z,82.30
2022-11-21T13:53:42.253Z,77.90
2022-11-21T13:59:03.969Z,71.20
2022-11-21T14:04:43.989Z,82.80
2022-11-21T14:09:53.163Z,89.90
2022-11-21T14:15:21.958Z,91.10
2022-11-21T14:20:32.665Z,89.50
2022-11-21T14:25:47.565Z,82.10
2022-11-21T14:31:00.995Z,76.50
2022-11-21T14:36:11.029Z,84.80
2022-11-21T14:41:32.062Z,83.40
2022-11-21T14:46:41.302Z,84.90
2022-11-21T14:51:52.391Z,83.20
2022-11-21T14:57:01.591Z,81.20
2022-11-21T15:02:15.894Z,81.80
2022-11-21T15:07:31.843Z,84.10
2022-11-21T15:12:47.900Z,83.10
2022-11-21T15:23:35.649Z,88.40
2022-11-21T15:28:58.742Z,73.70
2022-11-21T15:39:38.003Z,87.00
2022-11-21T15:45:00.926Z,82.90
2022-11-21T15:50:09.755Z,89.20
2022-11-21T15:55:22.216Z,81.80
2022-11-21T16:00:29.361Z,83.20
2022-11-21T16:05:36.772Z,80.70
2022-11-21T16:10:44.687Z,76.60
2022-11-21T16:15:52.100Z,82.00
2022-11-21T16:21:11.736Z,84.80
2022-11-21T16:26:19.518Z,84.20
2022-11-21T16:31:28.655Z,78.30
2022-11-21T16:36:35.840Z,77.10
2022-11-21T16:41:46.031Z,77.40
2022-11-21T16:46:55.571Z,81.40
2022-11-21T16:52:03.198Z,80.00
2022-11-21T16:57:10.687Z,82.10
2022-11-21T17:02:17.680Z,79.90
2022-11-21T17:07:25.449Z,77.90
2022-11-21T17:12:36.250Z,76.90
2022-11-21T17:17:43.539Z,79.90
2022-11-21T17:22:50.617Z,72.90
2022-11-21T17:27:58.219Z,79.70
2022-11-21T17:33:05.280Z,77.70
2022-11-21T17:38:12.412Z,77.60
2022-11-21T17:48:25.496Z,76.10
2022-11-21T17:59:03.489Z,72.90
2022-11-21T18:04:15.039Z,72.20
2022-11-21T18:09:22.813Z,78.70
2022-11-21T18:19:36.224Z,69.30
2022-11-21T18:24:43.043Z,74.50
2022-11-21T18:34:56.253Z,72.10
2022-11-21T18:40:03.769Z,71.70
2022-11-21T18:45:12.369Z,72.80
2022-11-21T18:50:19.901Z,74.60
2022-11-21T18:55:28.220Z,79.00
2022-11-21T19:00:35.222Z,75.00
2022-11-21T19:10:51.962Z,78.50
2022-11-21T19:16:01.789Z,75.20
2022-11-21T19:21:11.094Z,78.10
2022-11-21T19:26:21.775Z,67.30
2022-11-21T19:31:28.923Z,66.80
2022-11-21T19:43:12.004Z,70.60
2022-11-21T19:48:19.729Z,69.20
2022-11-21T19:53:28.255Z,71.20
2022-11-21T19:58:35.312Z,70.90
2022-11-21T20:03:44.537Z,72.70
2022-11-21T20:08:55.469Z,64.70
2022-11-21T20:14:02.926Z,83.40
2022-11-21T20:19:13.632Z,72.40
2022-11-21T20:24:21.255Z,79.20
2022-11-21T20:29:28.766Z,70.90
2022-11-21T20:34:36.449Z,70.60
2022-11-21T20:39:43.531Z,65.80
2022-11-21T20:45:54.489Z,78.10
2022-11-21T20:50:48.837Z,66.60
2022-11-21T20:55:46.459Z,68.40
2022-11-21T21:00:53.773Z,49.80
2022-11-21T21:11:36.927Z,62.50
2022-11-21T21:16:44.785Z,94.90
2022-11-21T21:21:52.127Z,80.70
2022-11-21T21:32:04.952Z,78.30
2022-11-21T21:37:12.363Z,86.00
2022-11-21T21:42:19.877Z,79.30
2022-11-21T21:47:27.179Z,104.00
2022-11-21T21:52:35.693Z,83.90
2022-11-21T21:57:47.179Z,105.20
2022-11-21T22:03:01.282Z,105.00
2022-11-21T22:08:08.762Z,104.20
2022-11-21T22:13:16.073Z,103.30
2022-11-21T22:23:30.830Z,99.10
2022-11-21T22:28:38.077Z,100.10
2022-11-21T22:38:55.186Z,87.90
2022-11-21T22:44:02.658Z,88.30
2022-11-21T22:49:11.329Z,99.80
2022-11-21T22:54:20.956Z,105.60
2022-11-21T22:59:29.873Z,93.90
2022-11-21T23:04:37.200Z,94.20
2022-11-21T23:09:44.709Z,91.70
2022-11-21T23:14:53.041Z,87.70
2022-11-21T23:20:00.644Z,85.50
2022-11-21T23:25:08.988Z,90.20
2022-11-21T23:30:18.412Z,92.70
2022-11-21T23:35:25.414Z,87.80
2022-11-21T23:40:32.718Z,90.40
2022-11-21T23:45:40.025Z,89.10
2022-11-21T23:55:53.910Z,80.60
